sensor_id;sensor_type;location;lat;lon;timestamp;P1;durP1;ratioP1;P2;durP2;ratioP2
61840;SDS011;47773;53.174;6.614;2022-12-29T00:02:10;11.10;;;5.60;;
61840;SDS011;47773;53.174;6.614;2022-12-29T00:04:36;12.70;;;5.70;;
61840;SDS011;47773;53.174;6.614;2022-12-29T00:07:02;9.15;;;4.57;;
61840;SDS011;47773;53.174;6.614;2022-12-29T00:09:31;10.50;;;5.38;;
61840;SDS011;47773;53.174;6.614;2022-12-29T00:11:58;8.60;;;5.53;;
61840;SDS011;47773;53.174;6.614;2022-12-29T00:14:24;9.02;;;5.03;;
61840;SDS011;47773;53.174;6.614;2022-12-29T00:17:09;7.88;;;5.20;;
61840;SDS011;47773;53.174;6.614;2022-12-29T00:19:34;10.50;;;4.90;;
61840;SDS011;47773;53.174;6.614;2022-12-29T00:22:18;10.63;;;5.35;;
61840;SDS011;47773;53.174;6.614;2022-12-29T00:25:03;7.57;;;5.68;;
61840;SDS011;47773;53.174;6.614;2022-12-29T00:27:48;9.48;;;5.30;;
61840;SDS011;47773;53.174;6.614;2022-12-29T00:30:33;7.50;;;5.28;;
61840;SDS011;47773;53.174;6.614;2022-12-29T00:33:20;10.15;;;5.22;;
61840;SDS011;47773;53.174;6.614;2022-12-29T00:36:13;9.60;;;5.72;;
61840;SDS011;47773;53.174;6.614;2022-12-29T00:38:55;10.93;;;5.65;;
61840;SDS011;47773;53.174;6.614;2022-12-29T00:41:42;10.98;;;5.63;;
61840;SDS011;47773;53.174;6.614;2022-12-29T00:44:27;7.60;;;5.60;;
61840;SDS011;47773;53.174;6.614;2022-12-29T00:46:53;8.95;;;5.22;;
61840;SDS011;47773;53.174;6.614;2022-12-29T00:49:18;9.07;;;5.53;;
61840;SDS011;47773;53.174;6.614;2022-12-29T00:52:06;7.93;;;4.68;;
61840;SDS011;47773;53.174;6.614;2022-12-29T00:54:35;8.82;;;5.35;;
61840;SDS011;47773;53.174;6.614;2022-12-29T00:57:03;8.63;;;4.78;;
61840;SDS011;47773;53.174;6.614;2022-12-29T00:59:30;8.38;;;5.50;;
61840;SDS011;47773;53.174;6.614;2022-12-29T01:01:55;13.73;;;5.28;;
61840;SDS011;47773;53.174;6.614;2022-12-29T01:04:22;7.47;;;5.28;;
61840;SDS011;47773;53.174;6.614;2022-12-29T01:06:49;11.45;;;5.65;;
61840;SDS011;47773;53.174;6.614;2022-12-29T01:09:15;8.40;;;5.10;;
61840;SDS011;47773;53.174;6.614;2022-12-29T01:12:00;9.45;;;5.45;;
61840;SDS011;47773;53.174;6.614;2022-12-29T01:14:27;12.00;;;5.88;;
61840;SDS011;47773;53.174;6.614;2022-12-29T01:16:53;10.73;;;6.30;;
61840;SDS011;47773;53.174;6.614;2022-12-29T01:19:19;8.27;;;5.70;;
61840;SDS011;47773;53.174;6.614;2022-12-29T01:21:46;8.60;;;5.30;;
61840;SDS011;47773;53.174;6.614;2022-12-29T01:24:12;8.88;;;6.00;;
61840;SDS011;47773;53.174;6.614;2022-12-29T01:26:39;9.07;;;5.55;;
61840;SDS011;47773;53.174;6.614;2022-12-29T01:29:05;10.82;;;5.53;;
61840;SDS011;47773;53.174;6.614;2022-12-29T01:31:30;8.25;;;5.07;;
61840;SDS011;47773;53.174;6.614;2022-12-29T01:33:56;10.85;;;5.63;;
61840;SDS011;47773;53.174;6.614;2022-12-29T01:36:22;9.13;;;5.30;;
61840;SDS011;47773;53.174;6.614;2022-12-29T01:38:49;7.20;;;5.03;;
61840;SDS011;47773;53.174;6.614;2022-12-29T01:41:15;10.35;;;5.25;;
61840;SDS011;47773;53.174;6.614;2022-12-29T01:43:42;9.68;;;5.80;;
61840;SDS011;47773;53.174;6.614;2022-12-29T01:51:42;11.90;;;6.32;;
61840;SDS011;47773;53.174;6.614;2022-12-29T01:54:16;7.70;;;5.40;;
61840;SDS011;47773;53.174;6.614;2022-12-29T01:57:05;10.35;;;5.20;;
61840;SDS011;47773;53.174;6.614;2022-12-29T01:59:34;9.63;;;5.28;;
61840;SDS011;47773;53.174;6.614;2022-12-29T02:02:08;11.30;;;5.65;;
61840;SDS011;47773;53.174;6.614;2022-12-29T02:04:34;10.13;;;5.57;;
61840;SDS011;47773;53.174;6.614;2022-12-29T02:07:05;9.20;;;6.00;;
61840;SDS011;47773;53.174;6.614;2022-12-29T02:09:36;10.02;;;5.18;;
61840;SDS011;47773;53.174;6.614;2022-12-29T02:12:02;7.15;;;5.05;;
61840;SDS011;47773;53.174;6.614;2022-12-29T02:14:28;8.90;;;5.13;;
61840;SDS011;47773;53.174;6.614;2022-12-29T02:20:07;8.10;;;4.57;;
61840;SDS011;47773;53.174;6.614;2022-12-29T02:23:20;5.80;;;4.18;;
61840;SDS011;47773;53.174;6.614;2022-12-29T02:28:55;13.15;;;4.35;;
61840;SDS011;47773;53.174;6.614;2022-12-29T02:39:24;7.88;;;3.80;;
61840;SDS011;47773;53.174;6.614;2022-12-29T02:42:13;7.40;;;4.07;;
61840;SDS011;47773;53.174;6.614;2022-12-29T02:44:59;8.57;;;4.40;;
61840;SDS011;47773;53.174;6.614;2022-12-29T02:47:49;9.45;;;4.05;;
61840;SDS011;47773;53.174;6.614;2022-12-29T02:50:23;8.00;;;3.85;;
61840;SDS011;47773;53.174;6.614;2022-12-29T02:53:05;10.00;;;3.80;;
61840;SDS011;47773;53.174;6.614;2022-12-29T02:55:34;7.78;;;4.30;;
61840;SDS011;47773;53.174;6.614;2022-12-29T03:03:35;8.90;;;3.70;;
61840;SDS011;47773;53.174;6.614;2022-12-29T03:09:17;5.50;;;3.03;;
61840;SDS011;47773;53.174;6.614;2022-12-29T03:11:59;5.00;;;3.00;;
61840;SDS011;47773;53.174;6.614;2022-12-29T03:20:06;6.50;;;3.15;;
61840;SDS011;47773;53.174;6.614;2022-12-29T03:22:36;6.70;;;2.42;;
61840;SDS011;47773;53.174;6.614;2022-12-29T03:25:24;9.10;;;2.55;;
61840;SDS011;47773;53.174;6.614;2022-12-29T03:27:56;4.75;;;2.55;;
61840;SDS011;47773;53.174;6.614;2022-12-29T03:30:28;4.72;;;2.50;;
61840;SDS011;47773;53.174;6.614;2022-12-29T03:32:57;3.88;;;2.28;;
61840;SDS011;47773;53.174;6.614;2022-12-29T03:35:26;4.30;;;2.10;;
61840;SDS011;47773;53.174;6.614;2022-12-29T03:40:24;6.47;;;2.00;;
61840;SDS011;47773;53.174;6.614;2022-12-29T03:42:52;10.13;;;2.22;;
61840;SDS011;47773;53.174;6.614;2022-12-29T03:45:19;5.78;;;2.00;;
61840;SDS011;47773;53.174;6.614;2022-12-29T03:47:45;5.90;;;2.10;;
61840;SDS011;47773;53.174;6.614;2022-12-29T03:50:14;7.13;;;2.38;;
61840;SDS011;47773;53.174;6.614;2022-12-29T03:52:40;8.73;;;2.90;;
61840;SDS011;47773;53.174;6.614;2022-12-29T03:55:06;8.32;;;2.45;;
61840;SDS011;47773;53.174;6.614;2022-12-29T03:57:32;5.55;;;2.20;;
61840;SDS011;47773;53.174;6.614;2022-12-29T03:59:58;5.70;;;2.10;;
61840;SDS011;47773;53.174;6.614;2022-12-29T04:02:23;4.88;;;2.72;;
61840;SDS011;47773;53.174;6.614;2022-12-29T04:04:50;6.05;;;2.53;;
61840;SDS011;47773;53.174;6.614;2022-12-29T04:07:16;7.25;;;2.53;;
61840;SDS011;47773;53.174;6.614;2022-12-29T04:09:41;8.43;;;2.22;;
61840;SDS011;47773;53.174;6.614;2022-12-29T04:12:07;5.93;;;2.50;;
61840;SDS011;47773;53.174;6.614;2022-12-29T04:14:32;3.08;;;1.92;;
61840;SDS011;47773;53.174;6.614;2022-12-29T04:16:58;8.10;;;2.10;;
61840;SDS011;47773;53.174;6.614;2022-12-29T04:19:24;7.28;;;2.40;;
61840;SDS011;47773;53.174;6.614;2022-12-29T04:21:49;7.15;;;1.90;;
61840;SDS011;47773;53.174;6.614;2022-12-29T04:24:15;5.28;;;2.50;;
61840;SDS011;47773;53.174;6.614;2022-12-29T04:26:41;6.68;;;2.10;;
61840;SDS011;47773;53.174;6.614;2022-12-29T04:29:07;6.32;;;2.10;;
61840;SDS011;47773;53.174;6.614;2022-12-29T04:31:33;6.20;;;1.92;;
61840;SDS011;47773;53.174;6.614;2022-12-29T04:33:58;5.70;;;1.75;;
61840;SDS011;47773;53.174;6.614;2022-12-29T04:36:25;7.35;;;1.77;;
61840;SDS011;47773;53.174;6.614;2022-12-29T04:38:51;9.68;;;1.50;;
61840;SDS011;47773;53.174;6.614;2022-12-29T04:41:16;6.10;;;1.50;;
61840;SDS011;47773;53.174;6.614;2022-12-29T04:43:42;8.60;;;1.30;;
61840;SDS011;47773;53.174;6.614;2022-12-29T04:46:08;10.98;;;1.83;;
61840;SDS011;47773;53.174;6.614;2022-12-29T04:48:33;7.07;;;1.08;;
61840;SDS011;47773;53.174;6.614;2022-12-29T04:50:59;10.25;;;1.30;;
61840;SDS011;47773;53.174;6.614;2022-12-29T04:53:25;9.77;;;1.30;;
61840;SDS011;47773;53.174;6.614;2022-12-29T04:55:51;8.40;;;1.50;;
61840;SDS011;47773;53.174;6.614;2022-12-29T04:58:18;8.77;;;1.40;;
61840;SDS011;47773;53.174;6.614;2022-12-29T05:00:44;14.90;;;1.90;;
61840;SDS011;47773;53.174;6.614;2022-12-29T05:03:10;6.45;;;1.20;;
61840;SDS011;47773;53.174;6.614;2022-12-29T05:05:36;18.30;;;2.00;;
61840;SDS011;47773;53.174;6.614;2022-12-29T05:08:02;17.98;;;1.30;;
61840;SDS011;47773;53.174;6.614;2022-12-29T05:10:27;8.73;;;1.50;;
61840;SDS011;47773;53.174;6.614;2022-12-29T05:12:53;19.23;;;2.03;;
61840;SDS011;47773;53.174;6.614;2022-12-29T05:15:19;12.93;;;1.50;;
61840;SDS011;47773;53.174;6.614;2022-12-29T05:17:44;7.38;;;1.58;;
61840;SDS011;47773;53.174;6.614;2022-12-29T05:20:10;14.27;;;1.40;;
61840;SDS011;47773;53.174;6.614;2022-12-29T05:22:35;11.27;;;1.58;;
61840;SDS011;47773;53.174;6.614;2022-12-29T05:25:01;16.00;;;3.22;;
61840;SDS011;47773;53.174;6.614;2022-12-29T05:27:27;11.70;;;1.85;;
61840;SDS011;47773;53.174;6.614;2022-12-29T05:29:53;10.60;;;1.40;;
61840;SDS011;47773;53.174;6.614;2022-12-29T05:32:18;14.23;;;1.67;;
61840;SDS011;47773;53.174;6.614;2022-12-29T05:34:44;16.25;;;1.63;;
61840;SDS011;47773;53.174;6.614;2022-12-29T05:37:10;8.10;;;1.65;;
61840;SDS011;47773;53.174;6.614;2022-12-29T05:39:35;12.43;;;1.77;;
61840;SDS011;47773;53.174;6.614;2022-12-29T05:42:01;16.65;;;2.30;;
61840;SDS011;47773;53.174;6.614;2022-12-29T05:44:27;13.20;;;1.77;;
61840;SDS011;47773;53.174;6.614;2022-12-29T05:46:52;7.93;;;2.00;;
61840;SDS011;47773;53.174;6.614;2022-12-29T05:49:18;16.50;;;2.35;;
61840;SDS011;47773;53.174;6.614;2022-12-29T05:51:44;16.10;;;2.20;;
61840;SDS011;47773;53.174;6.614;2022-12-29T05:54:09;18.80;;;2.00;;
61840;SDS011;47773;53.174;6.614;2022-12-29T05:56:35;21.48;;;2.70;;
61840;SDS011;47773;53.174;6.614;2022-12-29T05:59:00;12.65;;;2.00;;
61840;SDS011;47773;53.174;6.614;2022-12-29T06:01:26;15.20;;;1.92;;
61840;SDS011;47773;53.174;6.614;2022-12-29T06:03:52;19.60;;;2.33;;
61840;SDS011;47773;53.174;6.614;2022-12-29T06:06:17;14.23;;;2.03;;
61840;SDS011;47773;53.174;6.614;2022-12-29T06:08:43;9.77;;;1.70;;
61840;SDS011;47773;53.174;6.614;2022-12-29T06:11:09;15.02;;;1.88;;
61840;SDS011;47773;53.174;6.614;2022-12-29T06:13:35;17.30;;;2.15;;
61840;SDS011;47773;53.174;6.614;2022-12-29T06:16:01;19.70;;;1.85;;
61840;SDS011;47773;53.174;6.614;2022-12-29T06:18:27;11.65;;;1.90;;
61840;SDS011;47773;53.174;6.614;2022-12-29T06:20:52;13.35;;;2.28;;
61840;SDS011;47773;53.174;6.614;2022-12-29T06:23:18;7.60;;;1.90;;
61840;SDS011;47773;53.174;6.614;2022-12-29T06:25:44;17.55;;;1.90;;
61840;SDS011;47773;53.174;6.614;2022-12-29T06:28:11;16.88;;;1.85;;
61840;SDS011;47773;53.174;6.614;2022-12-29T06:30:37;27.75;;;2.65;;
61840;SDS011;47773;53.174;6.614;2022-12-29T06:33:03;17.52;;;2.35;;
61840;SDS011;47773;53.174;6.614;2022-12-29T06:35:29;15.40;;;1.95;;
61840;SDS011;47773;53.174;6.614;2022-12-29T06:37:55;13.85;;;1.90;;
61840;SDS011;47773;53.174;6.614;2022-12-29T06:40:20;18.60;;;2.10;;
61840;SDS011;47773;53.174;6.614;2022-12-29T06:42:46;17.52;;;1.70;;
61840;SDS011;47773;53.174;6.614;2022-12-29T06:45:12;16.20;;;2.22;;
61840;SDS011;47773;53.174;6.614;2022-12-29T06:47:38;15.30;;;1.80;;
61840;SDS011;47773;53.174;6.614;2022-12-29T06:50:04;18.02;;;2.20;;
61840;SDS011;47773;53.174;6.614;2022-12-29T06:52:30;21.88;;;2.42;;
61840;SDS011;47773;53.174;6.614;2022-12-29T06:54:55;14.65;;;1.80;;
61840;SDS011;47773;53.174;6.614;2022-12-29T06:57:21;16.45;;;1.73;;
61840;SDS011;47773;53.174;6.614;2022-12-29T06:59:47;23.73;;;2.55;;
61840;SDS011;47773;53.174;6.614;2022-12-29T07:02:13;21.30;;;1.90;;
61840;SDS011;47773;53.174;6.614;2022-12-29T07:04:39;18.88;;;2.00;;
61840;SDS011;47773;53.174;6.614;2022-12-29T07:07:05;18.58;;;1.95;;
61840;SDS011;47773;53.174;6.614;2022-12-29T07:09:31;32.30;;;2.50;;
61840;SDS011;47773;53.174;6.614;2022-12-29T07:11:56;22.30;;;2.75;;
61840;SDS011;47773;53.174;6.614;2022-12-29T07:14:22;13.27;;;2.17;;
61840;SDS011;47773;53.174;6.614;2022-12-29T07:16:48;21.08;;;1.98;;
61840;SDS011;47773;53.174;6.614;2022-12-29T07:19:13;17.80;;;1.80;;
61840;SDS011;47773;53.174;6.614;2022-12-29T07:21:39;16.33;;;2.28;;
61840;SDS011;47773;53.174;6.614;2022-12-29T07:24:05;16.88;;;2.22;;
61840;SDS011;47773;53.174;6.614;2022-12-29T07:26:30;20.33;;;2.20;;
61840;SDS011;47773;53.174;6.614;2022-12-29T07:28:56;21.90;;;2.30;;
61840;SDS011;47773;53.174;6.614;2022-12-29T07:31:23;14.65;;;1.67;;
61840;SDS011;47773;53.174;6.614;2022-12-29T07:33:49;25.20;;;3.33;;
61840;SDS011;47773;53.174;6.614;2022-12-29T07:36:15;18.70;;;2.30;;
61840;SDS011;47773;53.174;6.614;2022-12-29T07:38:41;25.13;;;2.92;;
61840;SDS011;47773;53.174;6.614;2022-12-29T07:41:07;18.58;;;2.40;;
61840;SDS011;47773;53.174;6.614;2022-12-29T07:43:34;18.23;;;1.88;;
61840;SDS011;47773;53.174;6.614;2022-12-29T07:46:00;11.75;;;2.25;;
61840;SDS011;47773;53.174;6.614;2022-12-29T07:48:25;14.57;;;2.10;;
61840;SDS011;47773;53.174;6.614;2022-12-29T07:50:52;14.30;;;2.92;;
61840;SDS011;47773;53.174;6.614;2022-12-29T07:53:18;13.77;;;2.08;;
61840;SDS011;47773;53.174;6.614;2022-12-29T07:55:44;22.38;;;3.08;;
61840;SDS011;47773;53.174;6.614;2022-12-29T07:58:09;13.45;;;2.10;;
61840;SDS011;47773;53.174;6.614;2022-12-29T08:00:35;19.63;;;2.40;;
61840;SDS011;47773;53.174;6.614;2022-12-29T08:03:04;20.20;;;2.13;;
61840;SDS011;47773;53.174;6.614;2022-12-29T08:05:30;22.42;;;2.35;;
61840;SDS011;47773;53.174;6.614;2022-12-29T08:07:57;19.98;;;2.80;;
61840;SDS011;47773;53.174;6.614;2022-12-29T08:10:23;20.83;;;3.50;;
61840;SDS011;47773;53.174;6.614;2022-12-29T08:12:49;11.95;;;2.40;;
61840;SDS011;47773;53.174;6.614;2022-12-29T08:15:15;24.80;;;2.53;;
61840;SDS011;47773;53.174;6.614;2022-12-29T08:17:40;25.17;;;2.53;;
61840;SDS011;47773;53.174;6.614;2022-12-29T08:20:06;24.02;;;2.63;;
61840;SDS011;47773;53.174;6.614;2022-12-29T08:22:32;20.27;;;1.98;;
61840;SDS011;47773;53.174;6.614;2022-12-29T08:24:58;21.50;;;2.13;;
61840;SDS011;47773;53.174;6.614;2022-12-29T08:27:24;13.05;;;2.20;;
61840;SDS011;47773;53.174;6.614;2022-12-29T08:29:50;27.75;;;2.13;;
61840;SDS011;47773;53.174;6.614;2022-12-29T08:32:16;19.65;;;2.85;;
61840;SDS011;47773;53.174;6.614;2022-12-29T08:34:42;21.65;;;3.03;;
61840;SDS011;47773;53.174;6.614;2022-12-29T08:37:07;20.92;;;2.40;;
61840;SDS011;47773;53.174;6.614;2022-12-29T08:39:33;23.15;;;2.40;;
61840;SDS011;47773;53.174;6.614;2022-12-29T08:41:59;37.10;;;4.18;;
61840;SDS011;47773;53.174;6.614;2022-12-29T08:44:25;23.17;;;2.63;;
61840;SDS011;47773;53.174;6.614;2022-12-29T08:46:50;30.40;;;2.85;;
61840;SDS011;47773;53.174;6.614;2022-12-29T08:49:16;24.08;;;2.58;;
61840;SDS011;47773;53.174;6.614;2022-12-29T08:51:41;22.50;;;2.63;;
61840;SDS011;47773;53.174;6.614;2022-12-29T08:54:07;21.88;;;2.65;;
61840;SDS011;47773;53.174;6.614;2022-12-29T08:56:33;30.02;;;5.32;;
61840;SDS011;47773;53.174;6.614;2022-12-29T08:58:59;28.50;;;2.97;;
61840;SDS011;47773;53.174;6.614;2022-12-29T09:01:24;32.67;;;3.80;;
61840;SDS011;47773;53.174;6.614;2022-12-29T09:03:50;22.95;;;2.70;;
61840;SDS011;47773;53.174;6.614;2022-12-29T09:06:16;24.90;;;2.50;;
61840;SDS011;47773;53.174;6.614;2022-12-29T09:08:43;22.30;;;2.35;;
61840;SDS011;47773;53.174;6.614;2022-12-29T09:11:17;38.75;;;3.10;;
61840;SDS011;47773;53.174;6.614;2022-12-29T09:13:45;17.75;;;2.67;;
61840;SDS011;47773;53.174;6.614;2022-12-29T09:16:11;25.77;;;2.97;;
61840;SDS011;47773;53.174;6.614;2022-12-29T09:18:40;23.17;;;3.30;;
61840;SDS011;47773;53.174;6.614;2022-12-29T09:21:07;19.63;;;2.83;;
61840;SDS011;47773;53.174;6.614;2022-12-29T09:23:34;27.35;;;3.40;;
61840;SDS011;47773;53.174;6.614;2022-12-29T09:26:01;19.73;;;2.42;;
61840;SDS011;47773;53.174;6.614;2022-12-29T09:28:27;21.83;;;3.45;;
61840;SDS011;47773;53.174;6.614;2022-12-29T09:30:54;27.33;;;2.58;;
61840;SDS011;47773;53.174;6.614;2022-12-29T09:33:20;27.17;;;2.38;;
61840;SDS011;47773;53.174;6.614;2022-12-29T09:35:50;23.45;;;2.85;;
61840;SDS011;47773;53.174;6.614;2022-12-29T09:38:17;27.80;;;2.38;;
61840;SDS011;47773;53.174;6.614;2022-12-29T09:41:06;14.80;;;1.75;;
61840;SDS011;47773;53.174;6.614;2022-12-29T09:46:31;22.15;;;2.90;;
61840;SDS011;47773;53.174;6.614;2022-12-29T09:49:21;18.70;;;2.42;;
61840;SDS011;47773;53.174;6.614;2022-12-29T09:51:57;23.27;;;2.08;;
61840;SDS011;47773;53.174;6.614;2022-12-29T09:56:59;22.25;;;2.25;;
61840;SDS011;47773;53.174;6.614;2022-12-29T10:04:58;18.48;;;2.10;;
61840;SDS011;47773;53.174;6.614;2022-12-29T10:07:36;22.50;;;2.63;;
61840;SDS011;47773;53.174;6.614;2022-12-29T10:10:20;16.80;;;3.10;;
61840;SDS011;47773;53.174;6.614;2022-12-29T10:15:40;31.63;;;3.13;;
61840;SDS011;47773;53.174;6.614;2022-12-29T10:18:19;17.05;;;2.17;;
61840;SDS011;47773;53.174;6.614;2022-12-29T10:21:08;17.58;;;2.40;;
61840;SDS011;47773;53.174;6.614;2022-12-29T10:23:41;15.35;;;2.05;;
61840;SDS011;47773;53.174;6.614;2022-12-29T10:26:14;20.90;;;2.00;;
61840;SDS011;47773;53.174;6.614;2022-12-29T10:28:43;17.65;;;2.33;;
61840;SDS011;47773;53.174;6.614;2022-12-29T10:31:30;28.85;;;2.80;;
61840;SDS011;47773;53.174;6.614;2022-12-29T10:34:05;27.02;;;3.25;;
61840;SDS011;47773;53.174;6.614;2022-12-29T10:37:03;16.30;;;2.30;;
61840;SDS011;47773;53.174;6.614;2022-12-29T10:39:50;16.55;;;3.03;;
61840;SDS011;47773;53.174;6.614;2022-12-29T10:45:18;12.32;;;2.25;;
61840;SDS011;47773;53.174;6.614;2022-12-29T10:47:57;14.35;;;2.38;;
61840;SDS011;47773;53.174;6.614;2022-12-29T10:50:36;19.17;;;3.10;;
61840;SDS011;47773;53.174;6.614;2022-12-29T10:53:07;20.58;;;2.28;;
61840;SDS011;47773;53.174;6.614;2022-12-29T10:55:48;18.27;;;2.10;;
61840;SDS011;47773;53.174;6.614;2022-12-29T10:58:15;20.08;;;2.50;;
61840;SDS011;47773;53.174;6.614;2022-12-29T11:00:41;14.73;;;2.60;;
61840;SDS011;47773;53.174;6.614;2022-12-29T11:05:57;19.35;;;2.47;;
61840;SDS011;47773;53.174;6.614;2022-12-29T11:08:37;25.67;;;2.65;;
61840;SDS011;47773;53.174;6.614;2022-12-29T11:11:21;22.95;;;2.75;;
61840;SDS011;47773;53.174;6.614;2022-12-29T11:13:54;25.75;;;2.63;;
61840;SDS011;47773;53.174;6.614;2022-12-29T11:16:28;25.00;;;2.53;;
61840;SDS011;47773;53.174;6.614;2022-12-29T11:18:55;31.52;;;3.08;;
61840;SDS011;47773;53.174;6.614;2022-12-29T11:21:37;19.17;;;2.70;;
61840;SDS011;47773;53.174;6.614;2022-12-29T11:24:25;32.50;;;3.55;;
61840;SDS011;47773;53.174;6.614;2022-12-29T11:26:54;33.72;;;4.05;;
61840;SDS011;47773;53.174;6.614;2022-12-29T11:29:40;22.00;;;2.83;;
61840;SDS011;47773;53.174;6.614;2022-12-29T11:32:42;30.90;;;4.47;;
61840;SDS011;47773;53.174;6.614;2022-12-29T11:34:59;30.58;;;2.60;;
61840;SDS011;47773;53.174;6.614;2022-12-29T11:40:05;21.08;;;2.20;;
61840;SDS011;47773;53.174;6.614;2022-12-29T11:42:53;24.90;;;2.70;;
61840;SDS011;47773;53.174;6.614;2022-12-29T11:45:22;26.60;;;2.75;;
61840;SDS011;47773;53.174;6.614;2022-12-29T11:48:37;24.77;;;3.63;;
61840;SDS011;47773;53.174;6.614;2022-12-29T11:50:48;19.25;;;2.78;;
61840;SDS011;47773;53.174;6.614;2022-12-29T11:53:28;34.30;;;3.92;;
61840;SDS011;47773;53.174;6.614;2022-12-29T11:56:02;21.33;;;2.35;;
61840;SDS011;47773;53.174;6.614;2022-12-29T11:58:52;20.63;;;3.40;;
61840;SDS011;47773;53.174;6.614;2022-12-29T12:01:35;25.48;;;3.28;;
61840;SDS011;47773;53.174;6.614;2022-12-29T12:06:29;32.40;;;4.90;;
61840;SDS011;47773;53.174;6.614;2022-12-29T12:09:00;31.40;;;3.20;;
61840;SDS011;47773;53.174;6.614;2022-12-29T12:11:32;32.22;;;3.70;;
61840;SDS011;47773;53.174;6.614;2022-12-29T12:16:43;33.47;;;4.28;;
61840;SDS011;47773;53.174;6.614;2022-12-29T12:19:26;35.58;;;4.15;;
61840;SDS011;47773;53.174;6.614;2022-12-29T12:27:36;38.08;;;4.55;;
61840;SDS011;47773;53.174;6.614;2022-12-29T12:30:19;21.52;;;2.97;;
61840;SDS011;47773;53.174;6.614;2022-12-29T12:43:49;33.13;;;3.53;;
61840;SDS011;47773;53.174;6.614;2022-12-29T13:00:52;16.20;;;2.20;;
61840;SDS011;47773;53.174;6.614;2022-12-29T13:08:54;21.92;;;2.10;;
61840;SDS011;47773;53.174;6.614;2022-12-29T13:16:59;22.80;;;2.03;;
61840;SDS011;47773;53.174;6.614;2022-12-29T13:25:15;11.15;;;1.35;;
61840;SDS011;47773;53.174;6.614;2022-12-29T13:30:21;15.48;;;1.80;;
61840;SDS011;47773;53.174;6.614;2022-12-29T13:40:43;21.88;;;1.80;;
61840;SDS011;47773;53.174;6.614;2022-12-29T13:43:13;12.05;;;1.95;;
61840;SDS011;47773;53.174;6.614;2022-12-29T13:45:40;17.95;;;1.98;;
61840;SDS011;47773;53.174;6.614;2022-12-29T13:48:14;21.67;;;2.53;;
61840;SDS011;47773;53.174;6.614;2022-12-29T13:50:45;17.55;;;1.88;;
61840;SDS011;47773;53.174;6.614;2022-12-29T13:53:24;17.85;;;1.88;;
61840;SDS011;47773;53.174;6.614;2022-12-29T14:02:09;15.95;;;1.50;;
61840;SDS011;47773;53.174;6.614;2022-12-29T14:04:41;21.55;;;3.03;;
61840;SDS011;47773;53.174;6.614;2022-12-29T14:07:25;14.45;;;1.88;;
61840;SDS011;47773;53.174;6.614;2022-12-29T14:09:52;28.40;;;2.13;;
61840;SDS011;47773;53.174;6.614;2022-12-29T14:15:14;15.90;;;1.98;;
61840;SDS011;47773;53.174;6.614;2022-12-29T14:17:45;20.65;;;1.80;;
61840;SDS011;47773;53.174;6.614;2022-12-29T14:20:46;19.58;;;1.88;;
61840;SDS011;47773;53.174;6.614;2022-12-29T14:24:25;17.92;;;2.30;;
61840;SDS011;47773;53.174;6.614;2022-12-29T14:26:40;21.83;;;1.85;;
61840;SDS011;47773;53.174;6.614;2022-12-29T14:29:15;20.38;;;2.35;;
61840;SDS011;47773;53.174;6.614;2022-12-29T14:31:50;22.58;;;2.47;;
61840;SDS011;47773;53.174;6.614;2022-12-29T14:40:03;23.17;;;2.28;;
61840;SDS011;47773;53.174;6.614;2022-12-29T14:47:38;28.30;;;2.78;;
61840;SDS011;47773;53.174;6.614;2022-12-29T14:52:59;21.67;;;2.13;;
61840;SDS011;47773;53.174;6.614;2022-12-29T14:55:39;23.17;;;2.28;;
61840;SDS011;47773;53.174;6.614;2022-12-29T14:58:14;25.73;;;2.45;;
61840;SDS011;47773;53.174;6.614;2022-12-29T15:00:41;16.40;;;2.25;;
61840;SDS011;47773;53.174;6.614;2022-12-29T15:03:14;32.45;;;2.50;;
61840;SDS011;47773;53.174;6.614;2022-12-29T15:05:46;21.67;;;2.72;;
61840;SDS011;47773;53.174;6.614;2022-12-29T15:08:16;26.05;;;3.58;;
61840;SDS011;47773;53.174;6.614;2022-12-29T15:10:49;38.13;;;2.80;;
61840;SDS011;47773;53.174;6.614;2022-12-29T15:13:22;25.92;;;2.50;;
61840;SDS011;47773;53.174;6.614;2022-12-29T15:15:50;33.33;;;3.65;;
61840;SDS011;47773;53.174;6.614;2022-12-29T15:18:22;29.70;;;2.72;;
61840;SDS011;47773;53.174;6.614;2022-12-29T15:20:50;16.00;;;1.90;;
61840;SDS011;47773;53.174;6.614;2022-12-29T15:23:17;23.15;;;2.25;;
61840;SDS011;47773;53.174;6.614;2022-12-29T15:25:47;27.50;;;3.38;;
61840;SDS011;47773;53.174;6.614;2022-12-29T15:28:19;24.73;;;2.42;;
61840;SDS011;47773;53.174;6.614;2022-12-29T15:30:52;18.85;;;3.20;;
61840;SDS011;47773;53.174;6.614;2022-12-29T15:33:27;20.58;;;2.30;;
61840;SDS011;47773;53.174;6.614;2022-12-29T15:35:53;23.52;;;3.28;;
61840;SDS011;47773;53.174;6.614;2022-12-29T15:38:25;15.23;;;2.78;;
61840;SDS011;47773;53.174;6.614;2022-12-29T15:40:53;20.27;;;2.88;;
61840;SDS011;47773;53.174;6.614;2022-12-29T15:46:18;23.00;;;3.88;;
61840;SDS011;47773;53.174;6.614;2022-12-29T15:48:44;35.90;;;6.15;;
61840;SDS011;47773;53.174;6.614;2022-12-29T15:51:17;33.53;;;6.50;;
61840;SDS011;47773;53.174;6.614;2022-12-29T15:53:48;20.52;;;3.25;;
61840;SDS011;47773;53.174;6.614;2022-12-29T15:56:16;20.35;;;3.35;;
61840;SDS011;47773;53.174;6.614;2022-12-29T15:58:44;14.98;;;2.85;;
61840;SDS011;47773;53.174;6.614;2022-12-29T16:01:32;25.70;;;4.15;;
61840;SDS011;47773;53.174;6.614;2022-12-29T16:03:59;23.15;;;7.18;;
61840;SDS011;47773;53.174;6.614;2022-12-29T16:06:34;75.50;;;27.13;;
61840;SDS011;47773;53.174;6.614;2022-12-29T16:11:33;23.98;;;2.65;;
61840;SDS011;47773;53.174;6.614;2022-12-29T16:14:07;22.73;;;3.03;;
61840;SDS011;47773;53.174;6.614;2022-12-29T16:16:44;24.85;;;3.47;;
61840;SDS011;47773;53.174;6.614;2022-12-29T16:19:17;26.85;;;8.65;;
61840;SDS011;47773;53.174;6.614;2022-12-29T16:21:51;25.13;;;7.10;;
61840;SDS011;47773;53.174;6.614;2022-12-29T16:24:21;28.95;;;7.53;;
61840;SDS011;47773;53.174;6.614;2022-12-29T16:26:59;31.75;;;7.25;;
61840;SDS011;47773;53.174;6.614;2022-12-29T16:29:32;21.20;;;3.70;;
61840;SDS011;47773;53.174;6.614;2022-12-29T16:32:00;37.10;;;8.80;;
61840;SDS011;47773;53.174;6.614;2022-12-29T16:37:03;24.75;;;8.13;;
61840;SDS011;47773;53.174;6.614;2022-12-29T16:39:34;14.95;;;6.00;;
61840;SDS011;47773;53.174;6.614;2022-12-29T16:50:30;8.10;;;1.75;;
61840;SDS011;47773;53.174;6.614;2022-12-29T16:52:57;7.72;;;1.80;;
61840;SDS011;47773;53.174;6.614;2022-12-29T16:55:24;10.80;;;2.63;;
61840;SDS011;47773;53.174;6.614;2022-12-29T16:57:50;12.88;;;4.18;;
61840;SDS011;47773;53.174;6.614;2022-12-29T17:00:22;18.33;;;5.63;;
61840;SDS011;47773;53.174;6.614;2022-12-29T17:02:49;14.85;;;4.68;;
61840;SDS011;47773;53.174;6.614;2022-12-29T17:05:19;7.97;;;3.50;;
61840;SDS011;47773;53.174;6.614;2022-12-29T17:07:45;7.05;;;2.72;;
61840;SDS011;47773;53.174;6.614;2022-12-29T17:10:11;10.70;;;1.90;;
61840;SDS011;47773;53.174;6.614;2022-12-29T17:12:38;7.18;;;3.55;;
61840;SDS011;47773;53.174;6.614;2022-12-29T17:15:10;9.48;;;3.88;;
61840;SDS011;47773;53.174;6.614;2022-12-29T17:17:54;8.05;;;3.05;;
61840;SDS011;47773;53.174;6.614;2022-12-29T17:20:25;13.68;;;2.70;;
61840;SDS011;47773;53.174;6.614;2022-12-29T17:22:55;14.27;;;3.38;;
61840;SDS011;47773;53.174;6.614;2022-12-29T17:25:29;23.27;;;6.30;;
61840;SDS011;47773;53.174;6.614;2022-12-29T17:27:59;21.27;;;5.95;;
61840;SDS011;47773;53.174;6.614;2022-12-29T17:30:27;25.30;;;5.80;;
61840;SDS011;47773;53.174;6.614;2022-12-29T17:33:09;23.98;;;3.60;;
61840;SDS011;47773;53.174;6.614;2022-12-29T17:35:37;17.00;;;3.03;;
61840;SDS011;47773;53.174;6.614;2022-12-29T17:38:12;31.50;;;6.18;;
61840;SDS011;47773;53.174;6.614;2022-12-29T17:40:42;25.20;;;3.67;;